Gila Bend, Arizona
Current Conditions -  °F | °C
As of 8:15 AM on Saturday 25 Oct 2014 (Local Time) from KBXK Reporting Station
Scattered Clouds Scattered Clouds  
Wind Chill: 22°   Ceiling: Unl
Heat Index: 22°   Visibility: 10mi
Dew Point:   Wind: 0mph
Humidity: 41%   Direction: NA
Pressure: 30.04"   Gusts: NA
Location:  32.95°N, 112.72°W
Report Text: KBXK 251515Z AUTO 00000KT 10SM SCT110 22/08 A3004 RMK AO1
Loading
Personal Weather Stations






























Interactive Weather Map
Tropical Storm Tracking
New forecast layout! Learn more

10-Day Weather Forecast

Advertisements
Track Severe Weather on mobile